DAC weather

Hazrat Shahjalal International Airport
Dhaka, Dhaka Division, Bangladesh

Public forecast

Using degrees Celsius for public forecast. Weather courtesy of forecast.io.

Current aviation weather report (METAR) for Hazrat Shahjalal International Airport

Retrieved 2019/12/07 03:30 UTC (10 minutes ago):

VGHS 070330Z 00000KT 3500 HZ NSC 26/18 Q1019 NOSIG

Closest aviation forecast (TAF) to Hazrat Shahjalal International Airport

Forecast is more than 6 hours old.

Retrieved 2019/12/06 18:00 UTC (10 hours ago):

TAF VGHS 061700Z 0618/0724 06006KT 3500 HZ NSC BECMG 0622/0624 00000KT 2000 BR NSC BECMG 0623/0701 00000KT 1500 BR NSC BECMG 0702/0704 00000KT 2500 HZ NSC BECMG 0705/0707 08005KT 3000 HZ NSC BECMG 0707/0709 32006KT 3500 HZ NSC BECMG 0710/0712 30005KT 4000 HZ FEW015 BECMG 0722/0724 VRB03KT 2800 HZ NSC